Terminal Aerodrome Forecast
Issued by NWS

Home | Current Version | Previous Version | Graphics & Text | Print | Product List | Glossary On
Versions: 1 2 3 4 5 6 7 8 9 10 11 12 13 14 15 16
000
FTUS43 KGRB 201700
TAFATW
TAF
KATW 201735Z 2018/2118 20010G17KT P6SM SCT050 SCT100
     FM202300 19007KT P6SM SCT100
     FM210600 20005KT 6SM BR SCT200
     FM211400 20009KT P6SM FEW040 SCT200=

USA.gov is the U.S. government's official web portal to all federal, state and local government web resources and services.